sensor_id;sensor_type;location;lat;lon;timestamp;temperature;humidity
25716;DHT22;13573;50.936;4.328;2023-02-15T00:02:01;5.40;99.90
25716;DHT22;13573;50.936;4.328;2023-02-15T00:04:28;5.40;99.90
25716;DHT22;13573;50.936;4.328;2023-02-15T00:07:14;5.40;99.90
25716;DHT22;13573;50.936;4.328;2023-02-15T00:09:41;5.40;99.90
25716;DHT22;13573;50.936;4.328;2023-02-15T00:12:09;5.30;99.90
25716;DHT22;13573;50.936;4.328;2023-02-15T00:14:36;5.70;99.90
25716;DHT22;13573;50.936;4.328;2023-02-15T00:17:03;4.90;99.90
25716;DHT22;13573;50.936;4.328;2023-02-15T00:19:29;5.10;99.90
25716;DHT22;13573;50.936;4.328;2023-02-15T00:21:57;5.70;99.90
25716;DHT22;13573;50.936;4.328;2023-02-15T00:24:24;5.20;99.90
25716;DHT22;13573;50.936;4.328;2023-02-15T00:26:51;5.10;99.90
25716;DHT22;13573;50.936;4.328;2023-02-15T00:29:19;5.30;99.90
25716;DHT22;13573;50.936;4.328;2023-02-15T00:31:46;5.10;99.90
25716;DHT22;13573;50.936;4.328;2023-02-15T00:34:18;5.20;99.90
25716;DHT22;13573;50.936;4.328;2023-02-15T00:36:45;5.30;99.90
25716;DHT22;13573;50.936;4.328;2023-02-15T00:39:12;5.00;99.90
25716;DHT22;13573;50.936;4.328;2023-02-15T00:41:39;5.50;99.90
25716;DHT22;13573;50.936;4.328;2023-02-15T00:44:06;5.10;99.90
25716;DHT22;13573;50.936;4.328;2023-02-15T00:51:28;4.60;99.90
25716;DHT22;13573;50.936;4.328;2023-02-15T00:53:55;4.90;99.90
25716;DHT22;13573;50.936;4.328;2023-02-15T00:56:21;5.00;99.90
25716;DHT22;13573;50.936;4.328;2023-02-15T00:58:48;4.60;99.90
25716;DHT22;13573;50.936;4.328;2023-02-15T01:03:43;5.20;99.90
25716;DHT22;13573;50.936;4.328;2023-02-15T01:06:13;4.50;99.90
25716;DHT22;13573;50.936;4.328;2023-02-15T01:08:40;4.70;99.90
25716;DHT22;13573;50.936;4.328;2023-02-15T01:11:09;4.40;99.90
25716;DHT22;13573;50.936;4.328;2023-02-15T01:13:36;4.60;99.90
25716;DHT22;13573;50.936;4.328;2023-02-15T01:16:04;5.20;99.90
25716;DHT22;13573;50.936;4.328;2023-02-15T01:18:33;5.60;99.90
25716;DHT22;13573;50.936;4.328;2023-02-15T01:21:13;3.50;99.90
25716;DHT22;13573;50.936;4.328;2023-02-15T01:26:08;5.00;99.90
25716;DHT22;13573;50.936;4.328;2023-02-15T01:28:36;5.00;99.90
25716;DHT22;13573;50.936;4.328;2023-02-15T01:31:06;4.40;99.90
25716;DHT22;13573;50.936;4.328;2023-02-15T01:33:33;4.70;99.90
25716;DHT22;13573;50.936;4.328;2023-02-15T01:36:01;4.70;99.90
25716;DHT22;13573;50.936;4.328;2023-02-15T01:38:28;4.70;99.90
25716;DHT22;13573;50.936;4.328;2023-02-15T01:46:00;4.80;99.90
25716;DHT22;13573;50.936;4.328;2023-02-15T01:48:28;4.90;99.90
25716;DHT22;13573;50.936;4.328;2023-02-15T01:50:57;4.70;99.90
25716;DHT22;13573;50.936;4.328;2023-02-15T01:53:31;4.90;99.90
25716;DHT22;13573;50.936;4.328;2023-02-15T01:56:05;4.80;99.90
25716;DHT22;13573;50.936;4.328;2023-02-15T02:01:01;4.70;99.90
25716;DHT22;13573;50.936;4.328;2023-02-15T02:06:05;4.70;99.90
25716;DHT22;13573;50.936;4.328;2023-02-15T02:08:33;4.70;99.90
25716;DHT22;13573;50.936;4.328;2023-02-15T02:11:00;4.80;99.90
25716;DHT22;13573;50.936;4.328;2023-02-15T02:13:26;4.50;99.90
25716;DHT22;13573;50.936;4.328;2023-02-15T02:16:03;4.50;99.90
25716;DHT22;13573;50.936;4.328;2023-02-15T02:18:41;4.40;99.90
25716;DHT22;13573;50.936;4.328;2023-02-15T02:21:20;4.40;99.90
25716;DHT22;13573;50.936;4.328;2023-02-15T02:24:01;4.10;99.90
25716;DHT22;13573;50.936;4.328;2023-02-15T02:26:45;4.30;99.90
25716;DHT22;13573;50.936;4.328;2023-02-15T02:33:25;3.80;99.90
25716;DHT22;13573;50.936;4.328;2023-02-15T02:35:08;3.90;99.90
25716;DHT22;13573;50.936;4.328;2023-02-15T02:37:45;4.40;99.90
25716;DHT22;13573;50.936;4.328;2023-02-15T02:42:49;3.60;99.90
25716;DHT22;13573;50.936;4.328;2023-02-15T02:45:20;3.90;99.90
25716;DHT22;13573;50.936;4.328;2023-02-15T02:47:52;3.80;99.90
25716;DHT22;13573;50.936;4.328;2023-02-15T02:50:26;3.80;99.90
25716;DHT22;13573;50.936;4.328;2023-02-15T02:52:54;3.40;99.90
25716;DHT22;13573;50.936;4.328;2023-02-15T02:55:25;3.60;99.90
25716;DHT22;13573;50.936;4.328;2023-02-15T02:58:06;3.80;99.90
25716;DHT22;13573;50.936;4.328;2023-02-15T03:00:37;3.90;99.90
25716;DHT22;13573;50.936;4.328;2023-02-15T03:03:08;3.70;99.90
25716;DHT22;13573;50.936;4.328;2023-02-15T03:05:39;4.30;99.90
25716;DHT22;13573;50.936;4.328;2023-02-15T03:08:07;3.40;99.90
25716;DHT22;13573;50.936;4.328;2023-02-15T03:10:38;3.20;99.90
25716;DHT22;13573;50.936;4.328;2023-02-15T03:13:07;3.40;99.90
25716;DHT22;13573;50.936;4.328;2023-02-15T03:15:38;3.20;99.90
25716;DHT22;13573;50.936;4.328;2023-02-15T03:18:11;3.60;99.90
25716;DHT22;13573;50.936;4.328;2023-02-15T03:20:39;3.50;99.90
25716;DHT22;13573;50.936;4.328;2023-02-15T03:23:11;3.50;99.90
25716;DHT22;13573;50.936;4.328;2023-02-15T03:25:41;3.30;99.90
25716;DHT22;13573;50.936;4.328;2023-02-15T03:28:13;3.50;99.90
25716;DHT22;13573;50.936;4.328;2023-02-15T03:30:44;3.10;99.90
25716;DHT22;13573;50.936;4.328;2023-02-15T03:33:13;2.10;99.90
25716;DHT22;13573;50.936;4.328;2023-02-15T03:35:49;3.30;99.90
25716;DHT22;13573;50.936;4.328;2023-02-15T03:38:20;3.70;99.90
25716;DHT22;13573;50.936;4.328;2023-02-15T03:40:48;3.10;99.90
25716;DHT22;13573;50.936;4.328;2023-02-15T03:43:45;3.30;99.90
25716;DHT22;13573;50.936;4.328;2023-02-15T03:46:18;2.60;99.90
25716;DHT22;13573;50.936;4.328;2023-02-15T03:48:48;3.00;99.90
25716;DHT22;13573;50.936;4.328;2023-02-15T03:51:20;2.80;99.90
25716;DHT22;13573;50.936;4.328;2023-02-15T03:53:54;1.70;99.90
25716;DHT22;13573;50.936;4.328;2023-02-15T03:56:22;3.10;99.90
25716;DHT22;13573;50.936;4.328;2023-02-15T03:58:51;2.90;99.90
25716;DHT22;13573;50.936;4.328;2023-02-15T04:01:45;2.90;99.90
25716;DHT22;13573;50.936;4.328;2023-02-15T04:04:32;2.80;99.90
25716;DHT22;13573;50.936;4.328;2023-02-15T04:06:59;2.90;99.90
25716;DHT22;13573;50.936;4.328;2023-02-15T04:09:26;3.00;99.90
25716;DHT22;13573;50.936;4.328;2023-02-15T04:11:59;2.90;99.90
25716;DHT22;13573;50.936;4.328;2023-02-15T04:14:25;2.90;99.90
25716;DHT22;13573;50.936;4.328;2023-02-15T04:16:58;3.20;99.90
25716;DHT22;13573;50.936;4.328;2023-02-15T04:19:25;2.60;99.90
25716;DHT22;13573;50.936;4.328;2023-02-15T04:21:57;2.70;99.90
25716;DHT22;13573;50.936;4.328;2023-02-15T04:27:04;3.10;99.90
25716;DHT22;13573;50.936;4.328;2023-02-15T04:29:31;3.10;99.90
25716;DHT22;13573;50.936;4.328;2023-02-15T04:31:59;3.30;99.90
25716;DHT22;13573;50.936;4.328;2023-02-15T04:34:26;3.40;99.90
25716;DHT22;13573;50.936;4.328;2023-02-15T04:36:53;2.40;99.90
25716;DHT22;13573;50.936;4.328;2023-02-15T04:39:19;4.10;99.90
25716;DHT22;13573;50.936;4.328;2023-02-15T04:41:46;4.00;99.90
25716;DHT22;13573;50.936;4.328;2023-02-15T04:44:15;3.90;99.90
25716;DHT22;13573;50.936;4.328;2023-02-15T04:46:43;3.50;99.90
25716;DHT22;13573;50.936;4.328;2023-02-15T04:49:09;3.40;99.90
25716;DHT22;13573;50.936;4.328;2023-02-15T04:54:03;3.00;99.90
25716;DHT22;13573;50.936;4.328;2023-02-15T04:56:30;3.00;99.90
25716;DHT22;13573;50.936;4.328;2023-02-15T04:58:59;3.30;99.90
25716;DHT22;13573;50.936;4.328;2023-02-15T05:01:25;3.40;99.90
25716;DHT22;13573;50.936;4.328;2023-02-15T05:03:53;3.10;99.90
25716;DHT22;13573;50.936;4.328;2023-02-15T05:06:20;3.40;99.90
25716;DHT22;13573;50.936;4.328;2023-02-15T05:08:47;4.00;99.90
25716;DHT22;13573;50.936;4.328;2023-02-15T05:11:14;3.20;99.90
25716;DHT22;13573;50.936;4.328;2023-02-15T05:13:41;1.90;99.90
25716;DHT22;13573;50.936;4.328;2023-02-15T05:16:08;3.40;99.90
25716;DHT22;13573;50.936;4.328;2023-02-15T05:18:35;3.40;99.90
25716;DHT22;13573;50.936;4.328;2023-02-15T05:21:02;3.10;99.90
25716;DHT22;13573;50.936;4.328;2023-02-15T05:23:29;3.10;99.90
25716;DHT22;13573;50.936;4.328;2023-02-15T05:25:56;4.20;99.90
25716;DHT22;13573;50.936;4.328;2023-02-15T05:28:28;3.80;99.90
25716;DHT22;13573;50.936;4.328;2023-02-15T05:31:17;3.40;99.90
25716;DHT22;13573;50.936;4.328;2023-02-15T05:33:44;3.30;99.90
25716;DHT22;13573;50.936;4.328;2023-02-15T05:36:11;3.40;99.90
25716;DHT22;13573;50.936;4.328;2023-02-15T05:38:38;2.20;99.90
25716;DHT22;13573;50.936;4.328;2023-02-15T05:41:05;3.20;99.90
25716;DHT22;13573;50.936;4.328;2023-02-15T05:43:32;1.70;99.90
25716;DHT22;13573;50.936;4.328;2023-02-15T05:45:59;2.80;99.90
25716;DHT22;13573;50.936;4.328;2023-02-15T05:48:27;2.80;99.90
25716;DHT22;13573;50.936;4.328;2023-02-15T05:51:01;2.90;99.90
25716;DHT22;13573;50.936;4.328;2023-02-15T05:53:29;3.00;99.90
25716;DHT22;13573;50.936;4.328;2023-02-15T05:55:56;3.00;99.90
25716;DHT22;13573;50.936;4.328;2023-02-15T05:58:26;3.10;99.90
25716;DHT22;13573;50.936;4.328;2023-02-15T06:00:53;3.20;99.90
25716;DHT22;13573;50.936;4.328;2023-02-15T06:03:20;3.20;99.90
25716;DHT22;13573;50.936;4.328;2023-02-15T06:05:47;2.60;99.90
25716;DHT22;13573;50.936;4.328;2023-02-15T06:08:13;3.10;99.90
25716;DHT22;13573;50.936;4.328;2023-02-15T06:10:40;2.90;99.90
25716;DHT22;13573;50.936;4.328;2023-02-15T06:13:07;3.30;99.90
25716;DHT22;13573;50.936;4.328;2023-02-15T06:15:35;3.50;99.90
25716;DHT22;13573;50.936;4.328;2023-02-15T06:18:04;3.30;99.90
25716;DHT22;13573;50.936;4.328;2023-02-15T06:20:32;3.10;99.90
25716;DHT22;13573;50.936;4.328;2023-02-15T06:22:59;2.50;99.90
25716;DHT22;13573;50.936;4.328;2023-02-15T06:25:25;2.70;99.90
25716;DHT22;13573;50.936;4.328;2023-02-15T06:27:52;2.90;99.90
25716;DHT22;13573;50.936;4.328;2023-02-15T06:30:20;2.90;99.90
25716;DHT22;13573;50.936;4.328;2023-02-15T06:32:46;3.20;99.90
25716;DHT22;13573;50.936;4.328;2023-02-15T06:35:14;3.00;99.90
25716;DHT22;13573;50.936;4.328;2023-02-15T06:37:41;2.80;99.90
25716;DHT22;13573;50.936;4.328;2023-02-15T06:40:08;5.20;99.90
25716;DHT22;13573;50.936;4.328;2023-02-15T06:42:35;2.70;99.90
25716;DHT22;13573;50.936;4.328;2023-02-15T06:45:03;2.30;99.90
25716;DHT22;13573;50.936;4.328;2023-02-15T06:47:30;2.70;99.90
25716;DHT22;13573;50.936;4.328;2023-02-15T06:49:57;2.90;99.90
25716;DHT22;13573;50.936;4.328;2023-02-15T06:52:23;2.90;99.90
25716;DHT22;13573;50.936;4.328;2023-02-15T06:54:51;3.20;99.90
25716;DHT22;13573;50.936;4.328;2023-02-15T06:59:45;3.40;99.90
25716;DHT22;13573;50.936;4.328;2023-02-15T07:04:40;2.20;99.90
25716;DHT22;13573;50.936;4.328;2023-02-15T07:07:12;3.70;99.90
25716;DHT22;13573;50.936;4.328;2023-02-15T07:09:39;3.60;99.90
25716;DHT22;13573;50.936;4.328;2023-02-15T07:12:06;3.50;99.90
25716;DHT22;13573;50.936;4.328;2023-02-15T07:14:39;3.40;99.90
25716;DHT22;13573;50.936;4.328;2023-02-15T07:17:06;2.90;99.90
25716;DHT22;13573;50.936;4.328;2023-02-15T07:22:00;4.90;99.90
25716;DHT22;13573;50.936;4.328;2023-02-15T07:24:26;5.10;99.90
25716;DHT22;13573;50.936;4.328;2023-02-15T07:26:58;5.70;99.90
25716;DHT22;13573;50.936;4.328;2023-02-15T07:34:18;7.80;99.90
25716;DHT22;13573;50.936;4.328;2023-02-15T07:36:45;7.60;99.90
25716;DHT22;13573;50.936;4.328;2023-02-15T07:41:39;8.60;99.90
25716;DHT22;13573;50.936;4.328;2023-02-15T07:44:11;8.80;99.90
25716;DHT22;13573;50.936;4.328;2023-02-15T07:46:39;8.60;99.90
25716;DHT22;13573;50.936;4.328;2023-02-15T07:49:06;9.00;99.90
25716;DHT22;13573;50.936;4.328;2023-02-15T07:51:32;9.80;99.90
25716;DHT22;13573;50.936;4.328;2023-02-15T07:53:59;11.10;99.90
25716;DHT22;13573;50.936;4.328;2023-02-15T07:56:26;11.20;99.90
25716;DHT22;13573;50.936;4.328;2023-02-15T07:58:52;10.40;99.90
25716;DHT22;13573;50.936;4.328;2023-02-15T08:01:26;11.20;99.90
25716;DHT22;13573;50.936;4.328;2023-02-15T08:03:54;11.60;99.90
25716;DHT22;13573;50.936;4.328;2023-02-15T08:06:23;13.40;99.90
25716;DHT22;13573;50.936;4.328;2023-02-15T08:08:50;11.70;99.90
25716;DHT22;13573;50.936;4.328;2023-02-15T08:11:29;12.60;99.90
25716;DHT22;13573;50.936;4.328;2023-02-15T08:16:42;11.90;99.90
25716;DHT22;13573;50.936;4.328;2023-02-15T08:19:14;12.10;99.90
25716;DHT22;13573;50.936;4.328;2023-02-15T08:21:45;12.00;99.90
25716;DHT22;13573;50.936;4.328;2023-02-15T08:26:39;12.00;99.90
25716;DHT22;13573;50.936;4.328;2023-02-15T08:29:07;12.40;99.90
25716;DHT22;13573;50.936;4.328;2023-02-15T08:31:35;12.50;99.90
25716;DHT22;13573;50.936;4.328;2023-02-15T08:34:03;13.70;99.90
25716;DHT22;13573;50.936;4.328;2023-02-15T08:36:31;15.30;99.90
25716;DHT22;13573;50.936;4.328;2023-02-15T08:38:58;13.50;99.90
25716;DHT22;13573;50.936;4.328;2023-02-15T08:41:27;13.60;99.90
25716;DHT22;13573;50.936;4.328;2023-02-15T08:43:57;13.40;99.90
25716;DHT22;13573;50.936;4.328;2023-02-15T08:49:05;13.40;99.90
25716;DHT22;13573;50.936;4.328;2023-02-15T08:51:41;13.20;99.90
25716;DHT22;13573;50.936;4.328;2023-02-15T08:54:14;12.60;99.90
25716;DHT22;13573;50.936;4.328;2023-02-15T08:56:42;12.10;99.90
25716;DHT22;13573;50.936;4.328;2023-02-15T08:59:16;11.80;99.90
25716;DHT22;13573;50.936;4.328;2023-02-15T09:04:10;10.00;99.90
25716;DHT22;13573;50.936;4.328;2023-02-15T09:06:40;11.20;99.90
25716;DHT22;13573;50.936;4.328;2023-02-15T09:09:07;11.40;99.90
25716;DHT22;13573;50.936;4.328;2023-02-15T09:11:36;11.00;99.90
25716;DHT22;13573;50.936;4.328;2023-02-15T09:14:06;11.20;99.90
25716;DHT22;13573;50.936;4.328;2023-02-15T09:16:37;11.60;99.90
25716;DHT22;13573;50.936;4.328;2023-02-15T09:19:05;10.90;99.90
25716;DHT22;13573;50.936;4.328;2023-02-15T09:26:34;12.30;99.90
25716;DHT22;13573;50.936;4.328;2023-02-15T09:29:02;11.90;99.90
25716;DHT22;13573;50.936;4.328;2023-02-15T09:31:31;11.10;99.90
25716;DHT22;13573;50.936;4.328;2023-02-15T09:34:10;11.40;99.90
25716;DHT22;13573;50.936;4.328;2023-02-15T09:36:40;12.10;99.90
25716;DHT22;13573;50.936;4.328;2023-02-15T09:39:11;12.30;99.90
25716;DHT22;13573;50.936;4.328;2023-02-15T09:44:33;12.30;99.90
25716;DHT22;13573;50.936;4.328;2023-02-15T09:50:03;11.30;99.90
25716;DHT22;13573;50.936;4.328;2023-02-15T09:55:39;12.60;99.90
25716;DHT22;13573;50.936;4.328;2023-02-15T09:58:11;13.20;99.90
25716;DHT22;13573;50.936;4.328;2023-02-15T10:01:04;13.30;99.90
25716;DHT22;13573;50.936;4.328;2023-02-15T10:04:52;12.00;99.90
25716;DHT22;13573;50.936;4.328;2023-02-15T10:06:37;12.30;99.90
25716;DHT22;13573;50.936;4.328;2023-02-15T10:12:03;14.30;99.90
25716;DHT22;13573;50.936;4.328;2023-02-15T10:14:37;14.20;99.90
25716;DHT22;13573;50.936;4.328;2023-02-15T10:17:19;13.60;99.90
25716;DHT22;13573;50.936;4.328;2023-02-15T10:22:34;13.60;99.90
25716;DHT22;13573;50.936;4.328;2023-02-15T10:25:18;14.00;99.90
25716;DHT22;13573;50.936;4.328;2023-02-15T10:27:47;14.30;99.90
25716;DHT22;13573;50.936;4.328;2023-02-15T10:32:57;13.90;99.90
25716;DHT22;13573;50.936;4.328;2023-02-15T10:35:45;14.20;99.90
25716;DHT22;13573;50.936;4.328;2023-02-15T10:38:19;14.80;99.90
25716;DHT22;13573;50.936;4.328;2023-02-15T10:40:54;15.00;99.90
25716;DHT22;13573;50.936;4.328;2023-02-15T10:47:04;14.30;99.90
25716;DHT22;13573;50.936;4.328;2023-02-15T10:49:20;15.30;99.90
25716;DHT22;13573;50.936;4.328;2023-02-15T10:54:49;16.20;99.90
25716;DHT22;13573;50.936;4.328;2023-02-15T10:57:26;15.90;99.90
25716;DHT22;13573;50.936;4.328;2023-02-15T11:00:05;15.70;99.90
25716;DHT22;13573;50.936;4.328;2023-02-15T11:02:42;15.20;99.90
25716;DHT22;13573;50.936;4.328;2023-02-15T11:07:44;15.50;99.90
25716;DHT22;13573;50.936;4.328;2023-02-15T11:10:34;16.50;99.90
25716;DHT22;13573;50.936;4.328;2023-02-15T11:18:36;15.50;99.90
25716;DHT22;13573;50.936;4.328;2023-02-15T11:23:35;14.70;99.90
25716;DHT22;13573;50.936;4.328;2023-02-15T11:26:04;15.30;99.90
25716;DHT22;13573;50.936;4.328;2023-02-15T11:28:38;14.70;99.90
25716;DHT22;13573;50.936;4.328;2023-02-15T11:31:13;15.20;99.90
25716;DHT22;13573;50.936;4.328;2023-02-15T11:36:22;14.80;99.90
25716;DHT22;13573;50.936;4.328;2023-02-15T11:38:54;15.20;99.90
25716;DHT22;13573;50.936;4.328;2023-02-15T11:41:24;15.20;99.90
25716;DHT22;13573;50.936;4.328;2023-02-15T11:44:14;15.40;99.90
25716;DHT22;13573;50.936;4.328;2023-02-15T11:46:41;15.40;99.90
25716;DHT22;13573;50.936;4.328;2023-02-15T11:54:12;14.70;99.90
25716;DHT22;13573;50.936;4.328;2023-02-15T11:56:39;15.10;99.90
25716;DHT22;13573;50.936;4.328;2023-02-15T12:01:37;15.00;99.90
25716;DHT22;13573;50.936;4.328;2023-02-15T12:09:25;15.00;99.90
25716;DHT22;13573;50.936;4.328;2023-02-15T12:11:51;15.10;99.90
25716;DHT22;13573;50.936;4.328;2023-02-15T12:16:49;13.50;99.90
25716;DHT22;13573;50.936;4.328;2023-02-15T12:19:29;14.70;99.90
25716;DHT22;13573;50.936;4.328;2023-02-15T12:21:59;14.60;99.90
25716;DHT22;13573;50.936;4.328;2023-02-15T12:27:02;14.60;99.90
25716;DHT22;13573;50.936;4.328;2023-02-15T12:29:35;15.20;99.90
25716;DHT22;13573;50.936;4.328;2023-02-15T12:32:03;15.90;99.90
25716;DHT22;13573;50.936;4.328;2023-02-15T12:34:35;16.30;99.90
25716;DHT22;13573;50.936;4.328;2023-02-15T12:37:09;16.20;99.90
25716;DHT22;13573;50.936;4.328;2023-02-15T12:39:37;16.00;99.90
25716;DHT22;13573;50.936;4.328;2023-02-15T12:42:18;15.80;99.90
25716;DHT22;13573;50.936;4.328;2023-02-15T12:44:57;15.80;99.90
25716;DHT22;13573;50.936;4.328;2023-02-15T12:47:26;16.30;99.90
25716;DHT22;13573;50.936;4.328;2023-02-15T12:50:12;16.90;99.90
25716;DHT22;13573;50.936;4.328;2023-02-15T12:55:25;17.00;99.90
25716;DHT22;13573;50.936;4.328;2023-02-15T13:00:31;17.70;99.90
25716;DHT22;13573;50.936;4.328;2023-02-15T13:02:59;17.40;99.90
25716;DHT22;13573;50.936;4.328;2023-02-15T13:05:34;17.50;99.90
25716;DHT22;13573;50.936;4.328;2023-02-15T13:08:14;17.70;99.90
25716;DHT22;13573;50.936;4.328;2023-02-15T13:13:22;16.40;99.90
25716;DHT22;13573;50.936;4.328;2023-02-15T13:15:52;17.50;99.90
25716;DHT22;13573;50.936;4.328;2023-02-15T13:18:30;17.00;99.90
25716;DHT22;13573;50.936;4.328;2023-02-15T13:21:05;17.20;99.90
25716;DHT22;13573;50.936;4.328;2023-02-15T13:23:30;16.20;99.90
25716;DHT22;13573;50.936;4.328;2023-02-15T13:25:59;15.50;99.90
25716;DHT22;13573;50.936;4.328;2023-02-15T13:28:35;17.40;99.90
25716;DHT22;13573;50.936;4.328;2023-02-15T13:31:00;17.60;99.90
25716;DHT22;13573;50.936;4.328;2023-02-15T13:33:34;17.90;99.90
25716;DHT22;13573;50.936;4.328;2023-02-15T13:36:34;16.50;99.90
25716;DHT22;13573;50.936;4.328;2023-02-15T13:40:12;16.40;99.90
25716;DHT22;13573;50.936;4.328;2023-02-15T13:41:57;17.00;99.90
25716;DHT22;13573;50.936;4.328;2023-02-15T13:47:27;17.40;99.90
25716;DHT22;13573;50.936;4.328;2023-02-15T13:51:07;17.20;99.90
25716;DHT22;13573;50.936;4.328;2023-02-15T13:55:26;15.80;99.90
25716;DHT22;13573;50.936;4.328;2023-02-15T13:58:02;18.30;99.90
25716;DHT22;13573;50.936;4.328;2023-02-15T14:00:48;17.80;99.90
25716;DHT22;13573;50.936;4.328;2023-02-15T14:03:29;17.80;99.90
25716;DHT22;13573;50.936;4.328;2023-02-15T14:08:58;17.30;99.90
25716;DHT22;13573;50.936;4.328;2023-02-15T14:11:30;16.80;99.90
25716;DHT22;13573;50.936;4.328;2023-02-15T14:16:41;16.50;99.90
25716;DHT22;13573;50.936;4.328;2023-02-15T14:19:16;16.00;99.90
25716;DHT22;13573;50.936;4.328;2023-02-15T14:21:51;16.40;99.90
25716;DHT22;13573;50.936;4.328;2023-02-15T14:24:33;16.30;99.90
25716;DHT22;13573;50.936;4.328;2023-02-15T14:27:13;15.10;99.90
25716;DHT22;13573;50.936;4.328;2023-02-15T14:29:49;16.00;99.90
25716;DHT22;13573;50.936;4.328;2023-02-15T14:32:22;15.80;99.90
25716;DHT22;13573;50.936;4.328;2023-02-15T14:37:22;16.30;99.90
25716;DHT22;13573;50.936;4.328;2023-02-15T14:40:00;16.40;99.90
25716;DHT22;13573;50.936;4.328;2023-02-15T14:42:43;15.10;99.90
25716;DHT22;13573;50.936;4.328;2023-02-15T14:47:55;16.00;99.90
25716;DHT22;13573;50.936;4.328;2023-02-15T14:50:40;16.00;99.90
25716;DHT22;13573;50.936;4.328;2023-02-15T14:56:20;15.30;99.90
25716;DHT22;13573;50.936;4.328;2023-02-15T15:03:55;15.20;99.90
25716;DHT22;13573;50.936;4.328;2023-02-15T15:06:29;15.30;99.90
25716;DHT22;13573;50.936;4.328;2023-02-15T15:11:45;13.90;99.90
25716;DHT22;13573;50.936;4.328;2023-02-15T15:16:49;15.60;99.90
25716;DHT22;13573;50.936;4.328;2023-02-15T15:22:02;13.60;99.90
25716;DHT22;13573;50.936;4.328;2023-02-15T15:25:43;13.90;99.90
25716;DHT22;13573;50.936;4.328;2023-02-15T15:29:59;14.80;99.90
25716;DHT22;13573;50.936;4.328;2023-02-15T15:32:30;14.40;99.90
25716;DHT22;13573;50.936;4.328;2023-02-15T15:38:03;15.10;99.90
25716;DHT22;13573;50.936;4.328;2023-02-15T15:43:44;14.70;99.90
25716;DHT22;13573;50.936;4.328;2023-02-15T15:48:43;14.60;99.90
25716;DHT22;13573;50.936;4.328;2023-02-15T15:51:23;13.70;99.90
25716;DHT22;13573;50.936;4.328;2023-02-15T15:53:51;12.90;99.90
25716;DHT22;13573;50.936;4.328;2023-02-15T15:58:55;12.40;99.90
25716;DHT22;13573;50.936;4.328;2023-02-15T16:01:27;13.70;99.90
25716;DHT22;13573;50.936;4.328;2023-02-15T16:03:57;13.70;99.90
25716;DHT22;13573;50.936;4.328;2023-02-15T16:06:31;13.50;99.90
25716;DHT22;13573;50.936;4.328;2023-02-15T16:11:34;13.30;99.90
25716;DHT22;13573;50.936;4.328;2023-02-15T16:14:04;12.80;99.90
25716;DHT22;13573;50.936;4.328;2023-02-15T16:16:33;12.80;99.90
25716;DHT22;13573;50.936;4.328;2023-02-15T16:19:00;11.80;99.90
25716;DHT22;13573;50.936;4.328;2023-02-15T16:21:30;12.80;99.90
25716;DHT22;13573;50.936;4.328;2023-02-15T16:24:21;12.70;99.90
25716;DHT22;13573;50.936;4.328;2023-02-15T16:27:00;12.60;99.90
25716;DHT22;13573;50.936;4.328;2023-02-15T16:29:31;11.50;99.90
25716;DHT22;13573;50.936;4.328;2023-02-15T16:32:01;12.50;99.90
25716;DHT22;13573;50.936;4.328;2023-02-15T16:34:28;12.50;99.90
25716;DHT22;13573;50.936;4.328;2023-02-15T16:39:41;11.60;99.90
25716;DHT22;13573;50.936;4.328;2023-02-15T16:42:09;12.60;99.90
25716;DHT22;13573;50.936;4.328;2023-02-15T16:44:37;11.60;99.90
25716;DHT22;13573;50.936;4.328;2023-02-15T16:47:04;13.10;99.90
25716;DHT22;13573;50.936;4.328;2023-02-15T16:49:34;11.60;99.90
25716;DHT22;13573;50.936;4.328;2023-02-15T16:52:03;12.40;99.90
25716;DHT22;13573;50.936;4.328;2023-02-15T16:54:36;11.20;99.90
25716;DHT22;13573;50.936;4.328;2023-02-15T16:57:03;12.40;99.90
25716;DHT22;13573;50.936;4.328;2023-02-15T16:59:35;10.80;99.90
25716;DHT22;13573;50.936;4.328;2023-02-15T17:02:11;12.80;99.90
25716;DHT22;13573;50.936;4.328;2023-02-15T17:04:35;12.00;99.90
25716;DHT22;13573;50.936;4.328;2023-02-15T17:07:22;12.10;99.90
25716;DHT22;13573;50.936;4.328;2023-02-15T17:09:51;12.40;99.90
25716;DHT22;13573;50.936;4.328;2023-02-15T17:12:44;10.60;99.90
25716;DHT22;13573;50.936;4.328;2023-02-15T17:17:50;10.20;99.90
25716;DHT22;13573;50.936;4.328;2023-02-15T17:20:19;11.60;99.90
25716;DHT22;13573;50.936;4.328;2023-02-15T17:22:48;11.30;99.90
25716;DHT22;13573;50.936;4.328;2023-02-15T17:25:21;12.30;99.90
25716;DHT22;13573;50.936;4.328;2023-02-15T17:27:53;11.20;99.90
25716;DHT22;13573;50.936;4.328;2023-02-15T17:30:36;11.20;99.90
25716;DHT22;13573;50.936;4.328;2023-02-15T17:33:18;11.10;99.90
25716;DHT22;13573;50.936;4.328;2023-02-15T17:38:06;11.40;99.90
25716;DHT22;13573;50.936;4.328;2023-02-15T17:40:35;11.30;99.90
25716;DHT22;13573;50.936;4.328;2023-02-15T17:43:02;11.20;99.90
25716;DHT22;13573;50.936;4.328;2023-02-15T17:45:36;11.70;99.90
25716;DHT22;13573;50.936;4.328;2023-02-15T17:48:05;11.20;99.90
25716;DHT22;13573;50.936;4.328;2023-02-15T17:50:33;11.20;99.90
25716;DHT22;13573;50.936;4.328;2023-02-15T17:53:00;11.60;99.90
25716;DHT22;13573;50.936;4.328;2023-02-15T17:55:27;11.80;99.90
25716;DHT22;13573;50.936;4.328;2023-02-15T17:58:02;11.60;99.90
25716;DHT22;13573;50.936;4.328;2023-02-15T18:00:31;11.80;99.90
25716;DHT22;13573;50.936;4.328;2023-02-15T18:03:08;11.30;99.90
25716;DHT22;13573;50.936;4.328;2023-02-15T18:05:41;10.00;99.90
25716;DHT22;13573;50.936;4.328;2023-02-15T18:08:17;11.60;99.90
25716;DHT22;13573;50.936;4.328;2023-02-15T18:10:51;11.70;99.90
25716;DHT22;13573;50.936;4.328;2023-02-15T18:13:23;11.30;99.90
25716;DHT22;13573;50.936;4.328;2023-02-15T18:15:54;11.40;99.90
25716;DHT22;13573;50.936;4.328;2023-02-15T18:18:21;11.60;99.90
25716;DHT22;13573;50.936;4.328;2023-02-15T18:20:49;11.10;99.90
25716;DHT22;13573;50.936;4.328;2023-02-15T18:23:17;11.10;99.90
25716;DHT22;13573;50.936;4.328;2023-02-15T18:25:44;11.20;99.90
25716;DHT22;13573;50.936;4.328;2023-02-15T18:28:12;11.30;99.90
25716;DHT22;13573;50.936;4.328;2023-02-15T18:30:39;11.70;99.90
25716;DHT22;13573;50.936;4.328;2023-02-15T18:33:43;11.20;99.90
25716;DHT22;13573;50.936;4.328;2023-02-15T18:35:55;10.50;99.90
25716;DHT22;13573;50.936;4.328;2023-02-15T18:38:22;10.50;99.90
25716;DHT22;13573;50.936;4.328;2023-02-15T18:40:49;11.40;99.90
25716;DHT22;13573;50.936;4.328;2023-02-15T18:43:15;12.10;99.90
25716;DHT22;13573;50.936;4.328;2023-02-15T18:45:42;10.40;99.90
25716;DHT22;13573;50.936;4.328;2023-02-15T18:48:08;10.40;99.90
25716;DHT22;13573;50.936;4.328;2023-02-15T18:50:36;12.00;99.90
25716;DHT22;13573;50.936;4.328;2023-02-15T18:53:06;10.30;99.90
25716;DHT22;13573;50.936;4.328;2023-02-15T18:55:34;11.50;99.90
25716;DHT22;13573;50.936;4.328;2023-02-15T18:58:01;10.30;99.90
25716;DHT22;13573;50.936;4.328;2023-02-15T19:00:32;10.20;99.90
25716;DHT22;13573;50.936;4.328;2023-02-15T19:03:00;9.20;99.90